Petitcodiac, Canada
Current Conditions -  °F | °C
As of 12:00 AM on Thursday 29 Jan 2015 (Local Time) from CYQM Reporting Station
Light Snow Light Snow  
Wind Chill:   Ceiling: 11000
Heat Index: 16°   Visibility: 12mi
Dew Point: 10°   Wind: 6mph
Humidity: 79%   Direction: 280°W
Pressure: 29.99"   Gusts: NA
Location:  45.93°N, 65.17°W
Report Text: CYQM 290400Z 28005KT 12SM -SN SCT045 OVC110 M09/M12 A2999 RMK SC3AC5 SLP161
Loading
Personal Weather Stations






























Interactive Weather Map New forecast layout! Learn more

10-Day Weather Forecast

Advertisements
Track Severe Weather on mobile